createdAt,value
2022-09-09T00:01:36.519Z,1.25
2022-09-09T00:04:25.196Z,1.15
2022-09-09T00:07:06.074Z,1.10
2022-09-09T00:09:46.372Z,1.08
2022-09-09T00:12:19.333Z,1.40
2022-09-09T00:14:56.341Z,0.88
2022-09-09T00:17:44.672Z,1.13
2022-09-09T00:20:26.042Z,1.02
2022-09-09T00:23:01.448Z,1.10
2022-09-09T00:25:38.939Z,1.10
2022-09-09T00:28:18.258Z,1.05
2022-09-09T00:30:46.891Z,1.25
2022-09-09T00:33:14.759Z,1.40
2022-09-09T00:35:48.094Z,1.30
2022-09-09T00:38:24.783Z,0.95
2022-09-09T00:41:10.511Z,1.05
2022-09-09T00:43:39.762Z,1.23
2022-09-09T00:46:15.719Z,1.00
2022-09-09T00:48:48.554Z,1.00
2022-09-09T00:51:30.471Z,1.02
2022-09-09T00:54:06.121Z,1.23
2022-09-09T00:56:38.885Z,1.23
2022-09-09T00:59:37.789Z,1.40
2022-09-09T01:02:19.904Z,1.10
2022-09-09T01:04:46.802Z,1.08
2022-09-09T01:07:18.527Z,1.08
2022-09-09T01:09:59.845Z,1.30
2022-09-09T01:12:36.314Z,1.00
2022-09-09T01:15:19.133Z,1.00
2022-09-09T01:17:59.040Z,1.38
2022-09-09T01:20:29.009Z,1.20
2022-09-09T01:23:01.782Z,0.63
2022-09-09T01:25:45.420Z,1.17
2022-09-09T01:28:27.521Z,1.23
2022-09-09T01:30:59.721Z,1.10
2022-09-09T01:33:30.786Z,1.13
2022-09-09T01:36:09.334Z,1.10
2022-09-09T01:38:44.029Z,1.10
2022-09-09T01:41:10.835Z,0.95
2022-09-09T01:43:47.987Z,1.20
2022-09-09T01:46:15.654Z,1.10
2022-09-09T01:48:44.191Z,1.13
2022-09-09T01:51:11.486Z,1.30
2022-09-09T01:53:42.436Z,1.10
2022-09-09T01:56:37.330Z,1.17
2022-09-09T01:59:14.104Z,1.10
2022-09-09T02:02:20.258Z,1.10
2022-09-09T02:05:14.696Z,1.17
2022-09-09T02:07:44.806Z,0.88
2022-09-09T02:10:37.006Z,1.20
2022-09-09T02:13:15.650Z,0.90
2022-09-09T02:15:56.697Z,0.98
2022-09-09T02:18:41.062Z,1.10
2022-09-09T02:21:10.990Z,0.75
2022-09-09T02:23:39.877Z,0.90
2022-09-09T02:26:12.564Z,0.77
2022-09-09T02:28:41.379Z,0.90
2022-09-09T02:31:08.037Z,1.02
2022-09-09T02:33:45.693Z,0.90
2022-09-09T02:36:15.736Z,0.90
2022-09-09T02:38:47.261Z,1.00
2022-09-09T02:41:15.818Z,1.00
2022-09-09T02:43:43.046Z,0.90
2022-09-09T02:46:23.049Z,0.95
2022-09-09T02:49:09.874Z,1.08
2022-09-09T02:51:42.222Z,0.90
2022-09-09T02:54:25.946Z,1.00
2022-09-09T02:56:55.288Z,1.20
2022-09-09T02:59:28.169Z,0.90
2022-09-09T03:01:55.024Z,1.00
2022-09-09T03:04:22.035Z,0.80
2022-09-09T03:06:49.392Z,0.70
2022-09-09T03:09:19.746Z,0.70
2022-09-09T03:11:46.618Z,1.00
2022-09-09T03:14:15.872Z,1.05
2022-09-09T03:16:42.612Z,0.93
2022-09-09T03:19:09.556Z,0.90
2022-09-09T03:21:36.419Z,0.98
2022-09-09T03:24:03.322Z,1.08
2022-09-09T03:26:31.065Z,1.10
2022-09-09T03:28:57.958Z,1.33
2022-09-09T03:31:24.731Z,0.90
2022-09-09T03:33:52.021Z,1.08
2022-09-09T03:36:20.246Z,1.00
2022-09-09T03:38:46.829Z,1.02
2022-09-09T03:41:13.615Z,0.90
2022-09-09T03:43:40.181Z,0.90
2022-09-09T03:46:06.856Z,1.02
2022-09-09T03:48:33.942Z,1.05
2022-09-09T03:51:01.095Z,0.85
2022-09-09T03:53:28.820Z,1.20
2022-09-09T03:55:58.062Z,0.93
2022-09-09T03:58:27.325Z,1.10
2022-09-09T04:01:00.269Z,0.90
2022-09-09T04:03:28.738Z,0.98
2022-09-09T04:05:58.397Z,0.70
2022-09-09T04:08:27.558Z,1.00
2022-09-09T04:10:55.543Z,1.00
2022-09-09T04:13:22.262Z,0.80
2022-09-09T04:15:56.967Z,0.93
2022-09-09T04:18:24.687Z,0.95
2022-09-09T04:20:52.548Z,1.13
2022-09-09T04:23:22.068Z,0.90
2022-09-09T04:25:54.438Z,1.00
2022-09-09T04:28:24.019Z,1.20
2022-09-09T04:30:50.937Z,0.93
2022-09-09T04:33:17.545Z,1.10
2022-09-09T04:35:49.498Z,0.90
2022-09-09T04:38:18.260Z,1.02
2022-09-09T04:40:47.699Z,1.00
2022-09-09T04:43:15.630Z,0.82
2022-09-09T04:45:44.850Z,1.00
2022-09-09T04:48:12.098Z,1.10
2022-09-09T04:50:38.752Z,0.90
2022-09-09T04:53:06.077Z,0.93
2022-09-09T04:55:34.412Z,0.95
2022-09-09T04:58:08.800Z,1.20
2022-09-09T05:00:36.333Z,1.00
2022-09-09T05:03:06.801Z,1.15
2022-09-09T05:05:34.866Z,0.98
2022-09-09T05:08:09.873Z,1.10
2022-09-09T05:10:39.653Z,1.00
2022-09-09T05:13:06.629Z,1.00
2022-09-09T05:15:33.649Z,1.00
2022-09-09T05:18:01.642Z,1.02
2022-09-09T05:20:30.702Z,1.20
2022-09-09T05:22:58.014Z,1.30
2022-09-09T05:25:28.597Z,0.98
2022-09-09T05:27:56.193Z,1.05
2022-09-09T05:30:22.917Z,0.98
2022-09-09T05:32:51.205Z,1.40
2022-09-09T05:35:18.729Z,1.30
2022-09-09T05:37:45.457Z,1.02
2022-09-09T05:40:12.320Z,1.10
2022-09-09T05:42:40.210Z,1.23
2022-09-09T05:45:08.993Z,1.33
2022-09-09T05:47:37.399Z,1.30
2022-09-09T05:50:06.796Z,1.33
2022-09-09T05:52:33.391Z,1.63
2022-09-09T05:55:00.239Z,1.40
2022-09-09T05:57:26.865Z,1.38
2022-09-09T05:59:53.793Z,1.30
2022-09-09T06:02:20.603Z,1.10
2022-09-09T06:04:47.372Z,1.30
2022-09-09T06:07:14.097Z,1.23
2022-09-09T06:09:41.887Z,1.10
2022-09-09T06:12:09.058Z,1.13
2022-09-09T06:14:36.797Z,1.20
2022-09-09T06:17:03.576Z,1.02
2022-09-09T06:19:31.064Z,0.80
2022-09-09T06:21:59.281Z,1.00
2022-09-09T06:24:27.531Z,1.13
2022-09-09T06:26:54.205Z,0.98
2022-09-09T06:29:24.918Z,1.00
2022-09-09T06:31:53.046Z,1.00
2022-09-09T06:34:24.424Z,0.98
2022-09-09T06:36:55.155Z,1.23
2022-09-09T06:39:21.804Z,1.20
2022-09-09T06:41:48.383Z,1.13
2022-09-09T06:44:41.211Z,0.85
2022-09-09T06:47:12.466Z,0.95
2022-09-09T06:49:40.854Z,1.00
2022-09-09T06:52:10.413Z,0.90
2022-09-09T06:54:38.454Z,0.80
2022-09-09T06:57:20.795Z,1.00
2022-09-09T06:59:52.746Z,0.93
2022-09-09T07:02:20.451Z,0.70
2022-09-09T07:04:47.584Z,0.80
2022-09-09T07:07:14.735Z,0.90
2022-09-09T07:09:41.438Z,0.90
2022-09-09T07:12:08.613Z,1.00
2022-09-09T07:14:38.763Z,0.77
2022-09-09T07:17:08.230Z,0.80
2022-09-09T07:19:38.062Z,0.93
2022-09-09T07:22:05.854Z,0.80
2022-09-09T07:24:33.227Z,1.00
2022-09-09T07:26:59.935Z,1.02
2022-09-09T07:29:27.088Z,1.02
2022-09-09T07:31:53.881Z,0.70
2022-09-09T07:34:25.813Z,0.70
2022-09-09T07:36:52.496Z,1.00
2022-09-09T07:39:19.892Z,0.88
2022-09-09T07:41:50.456Z,0.85
2022-09-09T07:44:22.519Z,0.88
2022-09-09T07:46:54.118Z,0.80
2022-09-09T07:49:32.177Z,0.82
2022-09-09T07:52:01.289Z,0.90
2022-09-09T07:54:28.695Z,0.80
2022-09-09T07:56:55.698Z,1.00
2022-09-09T07:59:25.558Z,1.10
2022-09-09T08:01:54.236Z,0.90
2022-09-09T08:04:25.496Z,0.98
2022-09-09T08:06:56.508Z,1.10
2022-09-09T08:09:25.409Z,0.90
2022-09-09T08:11:52.565Z,0.75
2022-09-09T08:14:19.714Z,0.88
2022-09-09T08:16:48.862Z,0.93
2022-09-09T08:19:18.561Z,1.10
2022-09-09T08:21:47.361Z,0.70
2022-09-09T08:24:14.303Z,0.95
2022-09-09T08:26:43.422Z,0.70
2022-09-09T08:29:13.807Z,0.80
2022-09-09T08:31:43.885Z,0.80
2022-09-09T08:34:11.956Z,1.15
2022-09-09T08:36:41.796Z,0.90
2022-09-09T08:39:09.748Z,1.00
2022-09-09T08:41:59.490Z,1.00
2022-09-09T08:44:35.298Z,1.10
2022-09-09T08:47:03.840Z,1.00
2022-09-09T08:49:54.899Z,1.10
2022-09-09T08:52:30.021Z,1.00
2022-09-09T08:55:14.415Z,0.90
2022-09-09T08:57:41.290Z,1.00
2022-09-09T09:00:11.315Z,0.80
2022-09-09T09:03:00.295Z,0.85
2022-09-09T09:05:48.489Z,1.00
2022-09-09T09:08:29.877Z,0.90
2022-09-09T09:10:59.083Z,0.93
2022-09-09T09:14:11.278Z,0.90
2022-09-09T09:16:58.854Z,0.82
2022-09-09T09:19:29.177Z,1.00
2022-09-09T09:22:11.664Z,0.85
2022-09-09T09:24:57.144Z,1.10
2022-09-09T09:27:41.230Z,0.88
2022-09-09T09:30:30.035Z,1.30
2022-09-09T09:33:25.768Z,1.00
2022-09-09T09:35:52.709Z,0.80
2022-09-09T09:41:11.331Z,1.00
2022-09-09T09:43:41.810Z,1.08
2022-09-09T09:46:22.009Z,1.00
2022-09-09T09:49:06.339Z,1.08
2022-09-09T09:51:34.823Z,0.98
2022-09-09T09:54:13.938Z,1.00
2022-09-09T09:56:42.848Z,0.90
2022-09-09T09:59:43.573Z,1.20
2022-09-09T10:02:24.777Z,0.85
2022-09-09T10:05:13.369Z,0.95
2022-09-09T10:07:41.514Z,1.10
2022-09-09T10:10:16.481Z,0.82
2022-09-09T10:13:16.261Z,0.85
2022-09-09T10:15:42.906Z,1.02
2022-09-09T10:18:41.932Z,1.00
2022-09-09T10:21:32.951Z,0.80
2022-09-09T10:24:37.444Z,0.82
2022-09-09T10:27:28.880Z,0.90
2022-09-09T10:30:07.581Z,0.80
2022-09-09T10:32:40.202Z,1.10
2022-09-09T10:35:39.621Z,0.77
2022-09-09T10:38:15.330Z,0.88
2022-09-09T10:41:03.070Z,0.85
2022-09-09T10:43:32.752Z,1.02
2022-09-09T10:46:17.365Z,0.90
2022-09-09T10:49:15.441Z,0.70
2022-09-09T10:52:06.695Z,0.90
2022-09-09T10:55:03.915Z,1.02
2022-09-09T10:57:38.423Z,0.70
2022-09-09T11:00:07.983Z,0.80
2022-09-09T11:02:35.648Z,0.98
2022-09-09T11:05:15.565Z,0.90
2022-09-09T11:07:49.193Z,0.80
2022-09-09T11:10:34.927Z,0.90
2022-09-09T11:13:08.666Z,1.00
2022-09-09T11:15:47.780Z,1.00
2022-09-09T11:18:20.476Z,0.80
2022-09-09T11:20:50.235Z,0.88
2022-09-09T11:23:24.229Z,0.73
2022-09-09T11:25:59.514Z,0.80
2022-09-09T11:28:37.254Z,0.80
2022-09-09T11:31:30.749Z,0.50
2022-09-09T11:34:18.221Z,0.70
2022-09-09T11:36:50.990Z,0.60
2022-09-09T11:39:39.055Z,1.00
2022-09-09T11:42:18.365Z,0.98
2022-09-09T11:44:45.541Z,0.80
2022-09-09T11:47:30.538Z,1.20
2022-09-09T11:50:15.529Z,0.85
2022-09-09T11:52:45.073Z,1.10
2022-09-09T11:55:33.078Z,0.80
2022-09-09T11:58:05.543Z,1.00
2022-09-09T12:00:41.435Z,1.00
2022-09-09T12:03:32.982Z,0.85
2022-09-09T12:06:00.817Z,0.80
2022-09-09T12:08:30.926Z,1.05
2022-09-09T12:10:59.909Z,0.68
2022-09-09T12:13:28.520Z,0.82
2022-09-09T12:15:57.902Z,1.10
2022-09-09T12:18:36.797Z,0.85
2022-09-09T12:21:22.656Z,0.70
2022-09-09T12:24:18.643Z,0.90
2022-09-09T12:26:59.639Z,1.08
2022-09-09T12:29:44.718Z,0.90
2022-09-09T12:32:15.581Z,0.80
2022-09-09T12:34:45.358Z,0.80
2022-09-09T12:37:48.787Z,0.70
2022-09-09T12:40:28.273Z,0.90
2022-09-09T12:42:55.369Z,0.98
2022-09-09T12:45:27.430Z,0.93
2022-09-09T12:48:04.643Z,0.65
2022-09-09T12:50:34.058Z,0.73
2022-09-09T12:53:08.126Z,0.60
2022-09-09T12:55:38.934Z,0.80
2022-09-09T12:58:07.442Z,0.60
2022-09-09T13:00:59.127Z,0.60
2022-09-09T13:03:26.359Z,0.80
2022-09-09T13:05:54.559Z,0.80
2022-09-09T13:08:21.655Z,0.80
2022-09-09T13:10:58.692Z,0.95
2022-09-09T13:13:36.232Z,1.10
2022-09-09T13:16:05.027Z,0.90
2022-09-09T13:18:34.832Z,0.80
2022-09-09T13:21:02.437Z,0.93
2022-09-09T13:23:32.204Z,0.80
2022-09-09T13:26:26.095Z,0.90
2022-09-09T13:28:54.873Z,0.80
2022-09-09T13:31:29.950Z,0.65
2022-09-09T13:33:57.131Z,0.70
2022-09-09T13:36:36.063Z,0.60
2022-09-09T13:39:04.737Z,0.80
2022-09-09T13:41:37.299Z,0.60
2022-09-09T13:44:05.521Z,0.55
2022-09-09T13:46:36.591Z,0.68
2022-09-09T13:49:21.636Z,0.63
2022-09-09T13:51:51.039Z,0.68
2022-09-09T13:54:19.763Z,0.77
2022-09-09T13:56:47.196Z,0.60
2022-09-09T13:59:20.504Z,0.70
2022-09-09T14:01:47.821Z,0.50
2022-09-09T14:04:14.583Z,0.70
2022-09-09T14:06:41.366Z,0.70
2022-09-09T14:09:10.960Z,0.40
2022-09-09T14:11:37.901Z,0.65
2022-09-09T14:14:04.738Z,0.50
2022-09-09T14:16:31.493Z,0.63
2022-09-09T14:18:58.257Z,0.43
2022-09-09T14:21:25.877Z,0.52
2022-09-09T14:23:53.039Z,0.60
2022-09-09T14:26:21.073Z,0.50
2022-09-09T14:28:56.202Z,0.40
2022-09-09T14:31:24.163Z,0.50
2022-09-09T14:33:51.256Z,0.77
2022-09-09T14:36:17.894Z,0.60
2022-09-09T14:38:44.728Z,0.60
2022-09-09T14:41:13.417Z,0.60
2022-09-09T14:43:40.749Z,0.50
2022-09-09T14:46:12.209Z,0.80
2022-09-09T14:48:39.353Z,0.70
2022-09-09T14:51:25.868Z,0.70
2022-09-09T14:53:54.252Z,0.60
2022-09-09T14:56:23.641Z,0.70
2022-09-09T14:58:50.957Z,0.35
2022-09-09T15:01:32.614Z,0.70
2022-09-09T15:04:05.228Z,0.65
2022-09-09T15:06:34.526Z,0.80
2022-09-09T15:09:01.813Z,0.77
2022-09-09T15:11:31.413Z,0.85
2022-09-09T15:13:58.123Z,0.75
2022-09-09T15:16:28.037Z,0.70
2022-09-09T15:18:57.620Z,0.70
2022-09-09T15:21:26.468Z,0.63
2022-09-09T15:23:53.383Z,0.60
2022-09-09T15:26:20.499Z,0.80
2022-09-09T15:28:47.744Z,0.60
2022-09-09T15:31:20.307Z,0.50
2022-09-09T15:33:50.988Z,0.63
2022-09-09T15:36:23.539Z,0.60
2022-09-09T15:38:51.368Z,0.80
2022-09-09T15:41:19.783Z,0.50
2022-09-09T15:43:51.589Z,0.80
2022-09-09T15:46:18.253Z,0.82
2022-09-09T15:48:47.288Z,0.63
2022-09-09T15:51:40.123Z,0.88
2022-09-09T15:54:02.531Z,0.77
2022-09-09T15:56:30.338Z,0.60
2022-09-09T15:58:58.236Z,0.47
2022-09-09T16:01:25.458Z,0.77
2022-09-09T16:03:52.251Z,0.95
2022-09-09T16:06:21.659Z,0.77
2022-09-09T16:08:51.269Z,0.80
2022-09-09T16:11:23.075Z,0.50
2022-09-09T16:13:52.631Z,0.70
2022-09-09T16:16:22.178Z,0.60
2022-09-09T16:18:57.738Z,0.70
2022-09-09T16:21:27.084Z,0.80
2022-09-09T16:23:53.983Z,0.77
2022-09-09T16:26:21.741Z,0.80
2022-09-09T16:28:48.752Z,0.60
2022-09-09T16:31:19.104Z,0.50
2022-09-09T16:33:46.036Z,0.43
2022-09-09T16:36:23.849Z,0.68
2022-09-09T16:38:58.350Z,0.70
2022-09-09T16:41:27.465Z,0.50
2022-09-09T16:43:56.043Z,0.50
2022-09-09T16:46:28.720Z,0.65
2022-09-09T16:48:58.011Z,0.50
2022-09-09T16:51:32.788Z,0.40
2022-09-09T16:54:01.289Z,0.57
2022-09-09T16:56:29.992Z,0.73
2022-09-09T16:59:02.059Z,0.63
2022-09-09T17:01:34.388Z,0.73
2022-09-09T17:04:02.606Z,0.70
2022-09-09T17:06:31.050Z,0.52
2022-09-09T17:08:59.540Z,0.70
2022-09-09T17:11:26.924Z,0.95
2022-09-09T17:13:54.453Z,0.77
2022-09-09T17:16:23.657Z,0.80
2022-09-09T17:18:51.200Z,0.85
2022-09-09T17:21:20.171Z,0.77
2022-09-09T17:23:47.362Z,0.70
2022-09-09T17:26:17.340Z,0.80
2022-09-09T17:28:45.167Z,0.90
2022-09-09T17:31:14.497Z,0.90
2022-09-09T17:33:44.221Z,0.70
2022-09-09T17:36:19.319Z,0.70
2022-09-09T17:38:46.774Z,0.70
2022-09-09T17:41:38.693Z,0.50
2022-09-09T17:46:40.450Z,0.40
2022-09-09T17:49:10.213Z,0.85
2022-09-09T17:51:37.207Z,0.43
2022-09-09T17:54:09.207Z,0.80
2022-09-09T17:56:37.761Z,0.60
2022-09-09T17:59:06.951Z,0.70
2022-09-09T18:01:36.119Z,0.68
2022-09-09T18:04:05.067Z,0.75
2022-09-09T18:06:37.277Z,0.80
2022-09-09T18:09:07.401Z,0.70
2022-09-09T18:11:38.948Z,0.47
2022-09-09T18:14:05.857Z,0.63
2022-09-09T18:16:34.457Z,0.80
2022-09-09T18:19:01.664Z,0.93
2022-09-09T18:21:30.741Z,0.95
2022-09-09T18:23:57.503Z,0.70
2022-09-09T18:26:25.644Z,0.90
2022-09-09T18:28:55.319Z,0.90
2022-09-09T18:31:23.863Z,0.68
2022-09-09T18:33:51.503Z,0.60
2022-09-09T18:36:26.453Z,0.77
2022-09-09T18:38:53.554Z,0.55
2022-09-09T18:41:20.080Z,0.85
2022-09-09T18:43:48.546Z,0.70
2022-09-09T18:46:15.763Z,0.65
2022-09-09T18:48:43.948Z,0.80
2022-09-09T18:51:11.156Z,0.60
2022-09-09T18:53:38.801Z,0.60
2022-09-09T18:56:08.550Z,0.70
2022-09-09T18:58:36.279Z,0.70
2022-09-09T19:01:04.417Z,0.50
2022-09-09T19:03:31.379Z,0.70
2022-09-09T19:06:27.263Z,0.95
2022-09-09T19:08:56.268Z,0.90
2022-09-09T19:11:26.336Z,0.70
2022-09-09T19:13:56.012Z,0.80
2022-09-09T19:16:23.747Z,0.85
2022-09-09T19:18:51.405Z,0.77
2022-09-09T19:21:27.161Z,0.63
2022-09-09T19:23:59.595Z,0.55
2022-09-09T19:26:32.160Z,0.70
2022-09-09T19:28:59.942Z,0.60
2022-09-09T19:31:27.638Z,0.90
2022-09-09T19:33:55.612Z,0.65
2022-09-09T19:36:24.252Z,0.77
2022-09-09T19:38:53.189Z,0.70
2022-09-09T19:41:22.467Z,0.88
2022-09-09T19:43:49.192Z,0.80
2022-09-09T19:46:16.030Z,0.60
2022-09-09T19:48:43.109Z,0.73
2022-09-09T19:51:12.564Z,0.82
2022-09-09T19:53:45.424Z,0.55
2022-09-09T19:56:12.888Z,0.60
2022-09-09T19:58:41.430Z,1.00
2022-09-09T20:01:23.718Z,0.63
2022-09-09T20:03:52.278Z,0.75
2022-09-09T20:06:21.708Z,0.68
2022-09-09T20:08:48.555Z,0.75
2022-09-09T20:11:16.689Z,0.60
2022-09-09T20:13:44.196Z,0.90
2022-09-09T20:16:19.378Z,0.60
2022-09-09T20:18:49.028Z,1.25
2022-09-09T20:21:18.074Z,0.63
2022-09-09T20:23:44.775Z,0.65
2022-09-09T20:26:13.652Z,0.70
2022-09-09T20:28:41.524Z,0.52
2022-09-09T20:31:13.846Z,0.90
2022-09-09T20:33:42.385Z,1.00
2022-09-09T20:36:17.424Z,1.00
2022-09-09T20:38:49.585Z,0.75
2022-09-09T20:41:17.494Z,0.63
2022-09-09T20:43:48.332Z,0.50
2022-09-09T20:46:20.454Z,0.63
2022-09-09T20:48:48.775Z,0.73
2022-09-09T20:51:15.571Z,0.73
2022-09-09T20:53:42.210Z,0.90
2022-09-09T20:56:10.571Z,0.80
2022-09-09T20:58:37.436Z,0.80
2022-09-09T21:01:06.972Z,0.60
2022-09-09T21:03:35.778Z,0.80
2022-09-09T21:06:03.709Z,0.70
2022-09-09T21:08:30.815Z,0.68
2022-09-09T21:10:57.844Z,0.60
2022-09-09T21:13:25.274Z,0.88
2022-09-09T21:15:52.499Z,0.73
2022-09-09T21:18:19.684Z,0.80
2022-09-09T21:20:46.822Z,0.85
2022-09-09T21:23:14.954Z,0.88
2022-09-09T21:25:42.209Z,0.70
2022-09-09T21:28:09.988Z,0.90
2022-09-09T21:30:43.456Z,0.60
2022-09-09T21:33:11.563Z,0.90
2022-09-09T21:35:39.691Z,0.52
2022-09-09T21:38:15.045Z,0.60
2022-09-09T21:40:41.924Z,0.55
2022-09-09T21:43:09.392Z,0.52
2022-09-09T21:45:37.454Z,0.90
2022-09-09T21:48:05.882Z,0.63
2022-09-09T21:50:53.320Z,0.50
2022-09-09T21:53:20.181Z,0.60
2022-09-09T21:55:48.221Z,0.90
2022-09-09T21:58:16.188Z,0.70
2022-09-09T22:00:47.300Z,0.73
2022-09-09T22:03:15.605Z,0.50
2022-09-09T22:05:43.923Z,0.80
2022-09-09T22:08:12.617Z,0.77
2022-09-09T22:10:43.631Z,0.77
2022-09-09T22:13:10.351Z,0.90
2022-09-09T22:15:41.276Z,0.80
2022-09-09T22:18:07.972Z,0.80
2022-09-09T22:20:43.184Z,0.88
2022-09-09T22:23:11.098Z,0.70
2022-09-09T22:25:38.554Z,0.73
2022-09-09T22:28:07.292Z,0.70
2022-09-09T22:30:34.086Z,0.70
2022-09-09T22:33:01.111Z,0.63
2022-09-09T22:35:27.793Z,0.80
2022-09-09T22:37:54.598Z,0.70
2022-09-09T22:40:21.640Z,1.00
2022-09-09T22:42:52.409Z,0.82
2022-09-09T22:45:19.984Z,0.85
2022-09-09T22:47:46.664Z,0.73
2022-09-09T22:50:13.503Z,0.70
2022-09-09T22:52:40.087Z,0.70
2022-09-09T22:55:07.547Z,0.60
2022-09-09T22:57:34.232Z,0.88
2022-09-09T23:00:01.004Z,0.80
2022-09-09T23:02:27.618Z,0.70
2022-09-09T23:04:54.357Z,0.70
2022-09-09T23:07:20.943Z,0.70
2022-09-09T23:09:47.622Z,0.68
2022-09-09T23:12:15.054Z,0.80
2022-09-09T23:14:41.695Z,0.77
2022-09-09T23:17:08.289Z,0.80
2022-09-09T23:19:35.065Z,0.60
2022-09-09T23:22:01.652Z,0.80
2022-09-09T23:24:28.295Z,0.70
2022-09-09T23:26:54.923Z,0.70
2022-09-09T23:29:21.564Z,0.70
2022-09-09T23:31:48.208Z,0.90
2022-09-09T23:34:15.033Z,0.80
2022-09-09T23:36:41.924Z,0.70
2022-09-09T23:39:09.020Z,0.70
2022-09-09T23:41:37.157Z,0.70
2022-09-09T23:44:04.933Z,0.80
2022-09-09T23:46:33.322Z,0.60
2022-09-09T23:49:00.254Z,0.50
2022-09-09T23:51:28.843Z,0.70
2022-09-09T23:53:56.692Z,0.90
2022-09-09T23:56:26.964Z,0.80
2022-09-09T23:58:53.969Z,0.55
